Time;durP1;ratioP1;P1;durP2;ratioP2;P2;SDS_P1;SDS_P2;PMS_P1;PMS_P2;Temp;Humidity;BMP_temperature;BMP_pressure;BME280_temperature;BME280_humidity;BME280_pressure;Samples;Min_cycle;Max_cycle;Signal;HPM_P1;HPM_P2
2022/01/20 00:02:18;;;;;;;78.68;52.80;;;;;;;;;;4906341;29;20064;-68
2022/01/20 00:04:52;;;;;;;100.43;64.00;;;;;;;;;;4887843;29;20062;-70
2022/01/20 00:26:14;;;;;;;90.70;60.13;;;;;;;;;;4914965;29;20048;-70
2022/01/20 00:28:47;;;;;;;94.25;61.58;;;;;;;;;;4919176;29;20048;-68
2022/01/20 00:33:51;;;;;;;95.93;60.15;;;;;;;;;;4920413;29;20136;-68
2022/01/20 00:39:05;;;;;;;91.00;55.22;;;;;;;;;;4909450;29;20048;-69
2022/01/20 00:41:32;;;;;;;87.53;56.90;;;;;;;;;;4923385;29;20048;-69
2022/01/20 00:43:59;;;;;;;91.38;60.78;;;;;;;;;;4919369;29;20384;-70
2022/01/20 00:46:26;;;;;;;94.38;60.72;;;;;;;;;;4907483;29;20501;-68
2022/01/20 00:48:54;;;;;;;84.45;57.53;;;;;;;;;;4918108;29;20048;-68
2022/01/20 00:51:23;;;;;;;88.05;57.03;;;;;;;;;;4916928;29;20493;-69
2022/01/20 00:53:51;;;;;;;81.90;56.05;;;;;;;;;;4918303;29;20044;-68
2022/01/20 00:56:18;;;;;;;83.15;54.15;;;;;;;;;;4916810;29;20524;-69
2022/01/20 00:58:45;;;;;;;79.18;53.22;;;;;;;;;;4917333;29;20048;-69
2022/01/20 01:01:13;;;;;;;82.75;55.45;;;;;;;;;;4916628;29;20075;-69
2022/01/20 01:03:40;;;;;;;86.85;59.47;;;;;;;;;;4916964;29;20048;-68
2022/01/20 01:06:22;;;;;;;83.97;54.53;;;;;;;;;;4917179;29;20062;-70
2022/01/20 01:08:49;;;;;;;94.45;58.10;;;;;;;;;;4914420;29;20497;-69
2022/01/20 01:11:18;;;;;;;87.10;56.42;;;;;;;;;;4918007;29;20068;-68
2022/01/20 01:13:45;;;;;;;87.45;57.30;;;;;;;;;;4917539;29;20473;-68
2022/01/20 01:16:13;;;;;;;85.53;58.60;;;;;;;;;;4900886;29;20559;-74
2022/01/20 01:22:02;;;;;;;87.47;56.10;;;;;;;;;;4913739;29;20052;-68
2022/01/20 01:24:13;;;;;;;83.35;54.83;;;;;;;;;;4912502;29;20108;-74
2022/01/20 01:26:40;;;;;;;91.32;57.88;;;;;;;;;;4916224;29;20677;-68
2022/01/20 01:29:23;;;;;;;88.32;57.35;;;;;;;;;;4916039;29;20044;-69
2022/01/20 01:31:51;;;;;;;81.80;53.53;;;;;;;;;;4916215;29;20127;-71
2022/01/20 01:34:21;;;;;;;81.93;53.78;;;;;;;;;;4900780;29;20099;-70
2022/01/20 01:37:04;;;;;;;83.70;53.00;;;;;;;;;;4916149;29;20055;-69
2022/01/20 01:39:32;;;;;;;83.60;52.92;;;;;;;;;;4900785;29;20058;-68
2022/01/20 01:41:59;;;;;;;85.75;53.28;;;;;;;;;;4917275;29;20481;-69
2022/01/20 01:44:30;;;;;;;88.72;56.15;;;;;;;;;;4916188;29;20103;-69
2022/01/20 01:46:59;;;;;;;79.25;49.53;;;;;;;;;;4915152;29;20060;-69
2022/01/20 01:49:27;;;;;;;83.18;50.90;;;;;;;;;;4915998;29;20080;-69
2022/01/20 01:51:54;;;;;;;74.05;52.75;;;;;;;;;;4900359;29;20131;-70
2022/01/20 01:54:22;;;;;;;79.68;52.63;;;;;;;;;;4915958;29;20135;-69
2022/01/20 01:56:49;;;;;;;78.38;50.60;;;;;;;;;;4900249;29;20051;-69
2022/01/20 01:59:25;;;;;;;83.57;56.58;;;;;;;;;;4914151;29;20056;-68
2022/01/20 02:02:12;;;;;;;78.63;50.58;;;;;;;;;;4909405;29;20112;-69
2022/01/20 02:04:42;;;;;;;77.97;50.10;;;;;;;;;;4912785;29;20104;-70
2022/01/20 02:21:22;;;;;;;;;;;;;;;;;;4899363;29;20056;-71
2022/01/20 02:23:51;;;;;;;76.40;48.35;;;;;;;;;;4912187;29;19923;-70
2022/01/20 02:26:18;;;;;;;81.50;50.92;;;;;;;;;;4896639;29;20413;-70
2022/01/20 02:28:46;;;;;;;73.35;47.17;;;;;;;;;;4896630;29;20120;-70
2022/01/20 02:31:15;;;;;;;82.72;51.63;;;;;;;;;;4897025;29;20059;-70
2022/01/20 02:33:42;;;;;;;78.10;49.42;;;;;;;;;;4911997;29;20524;-71
2022/01/20 02:36:15;;;;;;;83.00;52.28;;;;;;;;;;4896465;29;20131;-70
2022/01/20 02:38:53;;;;;;;80.32;54.97;;;;;;;;;;4896411;29;20135;-71
2022/01/20 02:46:53;;;;;;;93.07;58.88;;;;;;;;;;4876805;29;20517;-71
2022/01/20 02:49:20;;;;;;;94.75;61.20;;;;;;;;;;4897647;29;20051;-73
2022/01/20 02:51:53;;;;;;;91.95;60.80;;;;;;;;;;4896031;29;20049;-70
2022/01/20 02:54:20;;;;;;;88.43;59.00;;;;;;;;;;4881475;29;20166;-70
2022/01/20 02:56:48;;;;;;;102.50;65.25;;;;;;;;;;4911614;29;20045;-70
2022/01/20 02:59:16;;;;;;;86.88;58.88;;;;;;;;;;4895971;29;20100;-70
2022/01/20 03:01:43;;;;;;;96.95;61.67;;;;;;;;;;4913972;29;20056;-71
2022/01/20 03:04:11;;;;;;;88.93;61.70;;;;;;;;;;4914817;29;20052;-70
2022/01/20 03:06:38;;;;;;;92.70;63.10;;;;;;;;;;4914558;29;20567;-71
2022/01/20 03:09:06;;;;;;;86.03;57.15;;;;;;;;;;4913959;29;20070;-70
2022/01/20 03:11:34;;;;;;;95.25;59.30;;;;;;;;;;4916080;29;20388;-70
2022/01/20 03:14:01;;;;;;;88.60;60.75;;;;;;;;;;4914475;29;20044;-71
2022/01/20 03:16:28;;;;;;;87.18;56.30;;;;;;;;;;4899167;29;20281;-70
2022/01/20 03:18:55;;;;;;;88.53;60.47;;;;;;;;;;4914430;29;20067;-70
2022/01/20 03:21:22;;;;;;;91.03;57.83;;;;;;;;;;4914722;29;20080;-70
2022/01/20 03:23:49;;;;;;;88.28;61.65;;;;;;;;;;4914754;29;20675;-70
2022/01/20 03:26:17;;;;;;;93.75;59.65;;;;;;;;;;4913730;29;20137;-70
2022/01/20 03:28:44;;;;;;;86.47;58.88;;;;;;;;;;4915971;29;20119;-70
2022/01/20 03:31:11;;;;;;;97.43;60.40;;;;;;;;;;4914183;29;20099;-71
2022/01/20 03:33:38;;;;;;;90.90;58.40;;;;;;;;;;4914417;29;20052;-70
2022/01/20 03:36:05;;;;;;;89.00;58.45;;;;;;;;;;4914050;29;20454;-71
2022/01/20 03:38:38;;;;;;;89.45;59.03;;;;;;;;;;4915413;29;20136;-71
2022/01/20 03:41:05;;;;;;;91.93;60.38;;;;;;;;;;4914084;29;20151;-71
2022/01/20 03:43:32;;;;;;;87.40;59.78;;;;;;;;;;4914146;29;20501;-72
2022/01/20 03:46:01;;;;;;;90.43;59.35;;;;;;;;;;4897801;29;20453;-72
2022/01/20 03:48:29;;;;;;;87.13;55.67;;;;;;;;;;4914058;29;20143;-70
2022/01/20 03:51:00;;;;;;;86.90;58.00;;;;;;;;;;4898466;29;20074;-71
2022/01/20 03:53:38;;;;;;;84.40;56.00;;;;;;;;;;4913988;29;20070;-72
2022/01/20 03:56:10;;;;;;;89.35;56.60;;;;;;;;;;4914282;29;20048;-71
2022/01/20 03:58:48;;;;;;;85.65;55.63;;;;;;;;;;4913881;29;20052;-70
2022/01/20 04:01:18;;;;;;;79.53;56.92;;;;;;;;;;4913878;29;20104;-71
2022/01/20 04:04:02;;;;;;;79.15;55.55;;;;;;;;;;4898260;29;20100;-70
2022/01/20 04:06:43;;;;;;;77.10;51.50;;;;;;;;;;4914237;29;20048;-73
2022/01/20 04:09:10;;;;;;;84.68;52.28;;;;;;;;;;4914126;29;20065;-71
2022/01/20 04:11:37;;;;;;;83.15;51.13;;;;;;;;;;4915069;29;20044;-71
2022/01/20 04:14:03;;;;;;;68.70;50.10;;;;;;;;;;4914070;29;20465;-70
2022/01/20 04:16:37;;;;;;;76.43;49.60;;;;;;;;;;4913981;29;20485;-71
2022/01/20 04:19:07;;;;;;;68.82;47.90;;;;;;;;;;4913542;29;20452;-71
2022/01/20 04:21:37;;;;;;;74.03;48.75;;;;;;;;;;4913373;29;20055;-71
2022/01/20 04:24:06;;;;;;;67.63;46.65;;;;;;;;;;4913457;29;20048;-71
2022/01/20 04:26:35;;;;;;;75.93;51.92;;;;;;;;;;4913891;29;20071;-71
2022/01/20 04:29:06;;;;;;;74.70;52.78;;;;;;;;;;4913697;29;20497;-71
2022/01/20 04:31:36;;;;;;;69.15;47.92;;;;;;;;;;4898091;29;20084;-68
2022/01/20 04:34:06;;;;;;;78.25;51.75;;;;;;;;;;4913491;29;20083;-70
2022/01/20 04:36:37;;;;;;;81.07;52.90;;;;;;;;;;4898200;29;20468;-71
2022/01/20 04:39:07;;;;;;;71.32;47.75;;;;;;;;;;4913849;29;20040;-71
2022/01/20 04:41:35;;;;;;;65.82;46.40;;;;;;;;;;4912653;29;20103;-72
2022/01/20 04:44:08;;;;;;;68.30;46.40;;;;;;;;;;4894295;29;20469;-71
2022/01/20 04:57:24;;;;;;;60.35;43.42;;;;;;;;;;4913903;29;20111;-70
2022/01/20 04:59:53;;;;;;;71.28;48.58;;;;;;;;;;4900712;29;20079;-70
2022/01/20 05:02:23;;;;;;;64.78;44.72;;;;;;;;;;4913177;29;20505;-71
2022/01/20 05:04:55;;;;;;;70.97;47.42;;;;;;;;;;4913954;29;20053;-70
2022/01/20 05:07:35;;;;;;;80.47;50.85;;;;;;;;;;4898018;29;20059;-71
2022/01/20 05:10:07;;;;;;;81.88;48.75;;;;;;;;;;4898262;29;20052;-70
2022/01/20 05:13:22;;;;;;;74.80;50.50;;;;;;;;;;4897997;29;20048;-73
2022/01/20 05:15:23;;;;;;;74.25;49.10;;;;;;;;;;4909871;29;20136;-71
2022/01/20 05:17:52;;;;;;;82.18;52.10;;;;;;;;;;4897237;29;20410;-72
2022/01/20 05:20:20;;;;;;;74.97;52.70;;;;;;;;;;4898193;29;20071;-71
2022/01/20 05:22:47;;;;;;;77.13;52.28;;;;;;;;;;4897823;29;20055;-70
2022/01/20 05:25:18;;;;;;;74.60;49.90;;;;;;;;;;4897851;29;20052;-70
2022/01/20 05:27:45;;;;;;;80.65;54.60;;;;;;;;;;4897928;29;20056;-71
2022/01/20 05:30:14;;;;;;;79.35;49.00;;;;;;;;;;4913004;29;20067;-68
2022/01/20 05:33:01;;;;;;;92.82;50.55;;;;;;;;;;4898785;29;20139;-71
2022/01/20 05:35:29;;;;;;;80.43;50.92;;;;;;;;;;4897441;29;20056;-70
2022/01/20 05:37:56;;;;;;;77.32;49.33;;;;;;;;;;4897633;29;20108;-70
2022/01/20 05:40:24;;;;;;;76.70;51.60;;;;;;;;;;4897332;29;20059;-70
2022/01/20 05:42:53;;;;;;;82.07;51.95;;;;;;;;;;4897194;29;20498;-68
2022/01/20 05:45:20;;;;;;;84.65;52.20;;;;;;;;;;4897683;29;20490;-69
2022/01/20 05:47:57;;;;;;;76.15;50.38;;;;;;;;;;4897267;29;20068;-68
2022/01/20 05:50:47;;;;;;;81.20;52.65;;;;;;;;;;4892353;29;20112;-68
2022/01/20 05:53:14;;;;;;;72.45;46.00;;;;;;;;;;4898269;29;20398;-69
2022/01/20 05:55:42;;;;;;;75.07;49.45;;;;;;;;;;4897462;29;20049;-70
2022/01/20 05:58:09;;;;;;;75.68;47.35;;;;;;;;;;4897701;29;20398;-68
2022/01/20 06:00:37;;;;;;;77.82;50.40;;;;;;;;;;4912665;29;20044;-70
2022/01/20 06:05:51;;;;;;;74.65;47.75;;;;;;;;;;4903241;29;20146;-70
2022/01/20 06:08:18;;;;;;;75.72;45.65;;;;;;;;;;4914576;29;20047;-69
2022/01/20 06:10:46;;;;;;;83.93;52.08;;;;;;;;;;4902528;29;20052;-67
2022/01/20 06:13:23;;;;;;;81.00;51.78;;;;;;;;;;4915037;29;20584;-69
2022/01/20 06:15:50;;;;;;;76.68;49.03;;;;;;;;;;4901847;29;20056;-69
2022/01/20 06:18:18;;;;;;;74.10;50.58;;;;;;;;;;4915506;29;20048;-69
2022/01/20 06:20:53;;;;;;;76.82;50.80;;;;;;;;;;4915236;29;20383;-69
2022/01/20 06:23:21;;;;;;;81.05;52.00;;;;;;;;;;4915198;29;20059;-71
2022/01/20 06:25:50;;;;;;;69.25;48.70;;;;;;;;;;4915221;29;20059;-70
2022/01/20 06:28:18;;;;;;;68.90;46.45;;;;;;;;;;4899700;29;20130;-68
2022/01/20 06:30:47;;;;;;;66.32;45.97;;;;;;;;;;4915251;29;20402;-67
2022/01/20 06:33:15;;;;;;;74.60;46.45;;;;;;;;;;4915203;29;20054;-68
2022/01/20 06:35:54;;;;;;;73.85;51.55;;;;;;;;;;4913421;29;20052;-68
2022/01/20 06:38:22;;;;;;;73.63;48.63;;;;;;;;;;4914573;29;20056;-68
2022/01/20 06:40:51;;;;;;;70.90;48.10;;;;;;;;;;4916227;29;20058;-65
2022/01/20 06:43:18;;;;;;;81.07;52.40;;;;;;;;;;4914741;29;20520;-69
2022/01/20 06:45:46;;;;;;;69.82;47.00;;;;;;;;;;4914870;29;20051;-69
2022/01/20 06:48:19;;;;;;;85.95;54.70;;;;;;;;;;4914125;29;20125;-69
2022/01/20 06:51:04;;;;;;;72.55;50.75;;;;;;;;;;4915253;29;20059;-71
2022/01/20 06:53:32;;;;;;;79.68;53.55;;;;;;;;;;4911823;29;20055;-71
2022/01/20 06:55:59;;;;;;;78.13;51.38;;;;;;;;;;4915556;29;20559;-69
2022/01/20 06:58:26;;;;;;;75.35;49.88;;;;;;;;;;4915137;29;20040;-71
2022/01/20 07:00:53;;;;;;;86.80;49.35;;;;;;;;;;4915815;29;20055;-71
2022/01/20 07:03:25;;;;;;;70.53;48.80;;;;;;;;;;4914314;29;20052;-73
2022/01/20 07:05:52;;;;;;;69.03;47.55;;;;;;;;;;4914870;29;20092;-74
2022/01/20 07:08:22;;;;;;;69.63;48.13;;;;;;;;;;4914572;29;20059;-73
2022/01/20 07:10:49;;;;;;;72.32;46.65;;;;;;;;;;4914903;29;20048;-73
2022/01/20 07:13:16;;;;;;;103.25;58.92;;;;;;;;;;4883569;29;20134;-73
2022/01/20 07:15:43;;;;;;;90.90;54.15;;;;;;;;;;4914922;29;20527;-74
2022/01/20 07:18:10;;;;;;;97.13;61.35;;;;;;;;;;4914100;29;20066;-79
2022/01/20 07:20:37;;;;;;;74.25;51.50;;;;;;;;;;4914637;29;20151;-80
2022/01/20 07:23:11;;;;;;;68.25;48.72;;;;;;;;;;4915281;29;20050;-78
2022/01/20 07:25:53;;;;;;;73.72;50.50;;;;;;;;;;4899807;29;20535;-80
2022/01/20 07:28:21;;;;;;;67.10;45.25;;;;;;;;;;4896275;29;20048;-77
2022/01/20 07:30:48;;;;;;;66.97;45.78;;;;;;;;;;4894908;29;20063;-78
2022/01/20 07:33:15;;;;;;;67.47;48.50;;;;;;;;;;4896191;29;20139;-76
2022/01/20 07:35:44;;;;;;;70.47;47.85;;;;;;;;;;4898607;29;20048;-76
2022/01/20 07:38:11;;;;;;;70.82;46.33;;;;;;;;;;4916393;29;20056;-76
2022/01/20 07:40:39;;;;;;;74.22;47.90;;;;;;;;;;4919046;29;20056;-76
2022/01/20 07:43:06;;;;;;;70.80;48.30;;;;;;;;;;4918808;29;20072;-76
2022/01/20 07:45:56;;;;;;;74.63;47.28;;;;;;;;;;4914614;29;20087;-76
2022/01/20 07:48:42;;;;;;;66.00;46.38;;;;;;;;;;4919846;29;20420;-76
2022/01/20 07:51:15;;;;;;;65.20;45.63;;;;;;;;;;4917872;29;20056;-75
2022/01/20 07:53:43;;;;;;;71.93;47.70;;;;;;;;;;4902724;29;20142;-75
2022/01/20 07:56:12;;;;;;;64.22;46.03;;;;;;;;;;4902948;29;20055;-76
2022/01/20 07:58:40;;;;;;;68.35;46.78;;;;;;;;;;4917378;29;20492;-77
2022/01/20 08:01:08;;;;;;;61.17;43.10;;;;;;;;;;4918454;29;20056;-76
2022/01/20 08:03:43;;;;;;;69.45;46.60;;;;;;;;;;4913456;29;20040;-77
2022/01/20 08:06:14;;;;;;;64.13;43.38;;;;;;;;;;4914382;29;20413;-76
2022/01/20 08:08:45;;;;;;;62.13;43.00;;;;;;;;;;4913052;29;20063;-76
2022/01/20 08:11:31;;;;;;;66.97;47.90;;;;;;;;;;4914399;29;20055;-76
2022/01/20 08:14:21;;;;;;;64.35;43.05;;;;;;;;;;4904738;29;20142;-76
2022/01/20 08:16:48;;;;;;;68.25;44.10;;;;;;;;;;4914415;29;20078;-76
2022/01/20 08:19:16;;;;;;;61.58;42.50;;;;;;;;;;4914252;29;20052;-76
2022/01/20 08:21:44;;;;;;;63.50;44.67;;;;;;;;;;4913865;29;20052;-75
2022/01/20 08:24:11;;;;;;;63.17;45.05;;;;;;;;;;4913948;29;20529;-76
2022/01/20 08:26:38;;;;;;;64.53;44.83;;;;;;;;;;4897882;29;20095;-75
2022/01/20 08:29:05;;;;;;;67.43;45.80;;;;;;;;;;4910506;29;20059;-76
2022/01/20 08:31:32;;;;;;;70.47;51.20;;;;;;;;;;4913484;29;20742;-75
2022/01/20 08:34:12;;;;;;;80.30;52.40;;;;;;;;;;4915173;29;22053;-76
2022/01/20 08:36:59;;;;;;;73.43;47.65;;;;;;;;;;4904173;29;20063;-76
2022/01/20 08:42:01;;;;;;;74.15;51.65;;;;;;;;;;4916688;29;20412;-76
2022/01/20 08:44:29;;;;;;;74.22;49.78;;;;;;;;;;4916841;29;20135;-76
2022/01/20 08:46:58;;;;;;;78.07;52.10;;;;;;;;;;4917107;29;20040;-77
2022/01/20 08:49:26;;;;;;;76.28;51.30;;;;;;;;;;4916893;29;20060;-76
2022/01/20 08:51:56;;;;;;;73.28;50.15;;;;;;;;;;4917389;29;20539;-77
2022/01/20 08:54:29;;;;;;;71.60;51.42;;;;;;;;;;4901206;29;20056;-76
2022/01/20 08:57:05;;;;;;;83.25;53.83;;;;;;;;;;4901643;29;20056;-76
2022/01/20 08:59:33;;;;;;;80.43;52.45;;;;;;;;;;4916572;29;20045;-75
2022/01/20 09:02:01;;;;;;;80.53;51.85;;;;;;;;;;4901262;29;20056;-74
2022/01/20 09:04:29;;;;;;;77.47;50.03;;;;;;;;;;4917080;29;20135;-79
2022/01/20 09:07:27;;;;;;;72.13;48.80;;;;;;;;;;4917186;29;20172;-74
2022/01/20 09:09:56;;;;;;;77.88;51.38;;;;;;;;;;4906336;29;20067;-72
2022/01/20 09:17:45;;;;;;;85.68;55.53;;;;;;;;;;4922606;29;20053;-73
2022/01/20 09:20:13;;;;;;;90.38;56.38;;;;;;;;;;4918927;29;20049;-73
2022/01/20 09:22:40;;;;;;;97.93;55.60;;;;;;;;;;4913804;29;20422;-73
2022/01/20 09:25:07;;;;;;;90.00;58.53;;;;;;;;;;4888098;29;20051;-73
2022/01/20 09:27:37;;;;;;;90.18;55.40;;;;;;;;;;4913773;29;20063;-73
2022/01/20 09:30:06;;;;;;;85.97;55.30;;;;;;;;;;4925330;29;20052;-70
2022/01/20 09:32:37;;;;;;;89.57;54.53;;;;;;;;;;4911798;29;20048;-71
2022/01/20 09:35:05;;;;;;;92.10;57.80;;;;;;;;;;4922884;29;20568;-71
2022/01/20 09:37:34;;;;;;;93.03;56.25;;;;;;;;;;4921111;29;20142;-71
2022/01/20 09:40:01;;;;;;;91.25;55.47;;;;;;;;;;4912484;29;20100;-72
2022/01/20 09:42:37;;;;;;;89.35;57.90;;;;;;;;;;4926024;29;20056;-70
2022/01/20 09:45:05;;;;;;;84.72;55.95;;;;;;;;;;4916254;29;20047;-74
2022/01/20 09:47:32;;;;;;;89.40;57.13;;;;;;;;;;4923739;29;20072;-71
2022/01/20 09:50:03;;;;;;;88.18;53.10;;;;;;;;;;4912527;29;20058;-71
2022/01/20 09:52:37;;;;;;;82.10;56.38;;;;;;;;;;4912368;29;20055;-73
2022/01/20 09:55:35;;;;;;;93.75;56.60;;;;;;;;;;4894025;29;20059;-71
2022/01/20 09:58:04;;;;;;;89.95;54.83;;;;;;;;;;4925446;29;20135;-71
2022/01/20 10:00:31;;;;;;;92.00;58.53;;;;;;;;;;4912106;29;20151;-73
2022/01/20 10:03:12;;;;;;;90.50;57.70;;;;;;;;;;4922774;29;20119;-69
2022/01/20 10:05:44;;;;;;;87.82;56.65;;;;;;;;;;4892582;29;20060;-71
2022/01/20 10:08:21;;;;;;;94.13;57.42;;;;;;;;;;4904179;29;20056;-70
2022/01/20 10:11:08;;;;;;;84.15;53.35;;;;;;;;;;4914465;29;20044;-69
2022/01/20 10:13:57;;;;;;;82.15;53.13;;;;;;;;;;4913569;29;20044;-71
2022/01/20 10:16:48;;;;;;;84.70;54.05;;;;;;;;;;4909727;29;20104;-71
2022/01/20 10:19:28;;;;;;;82.93;51.10;;;;;;;;;;4918250;29;20091;-73
2022/01/20 10:22:11;;;;;;;87.03;57.25;;;;;;;;;;4905104;29;20044;-73
2022/01/20 10:25:10;;;;;;;83.75;54.10;;;;;;;;;;4904951;29;20080;-73
2022/01/20 10:27:55;;;;;;;82.53;54.25;;;;;;;;;;4912328;29;20619;-72
2022/01/20 10:30:24;;;;;;;80.25;51.58;;;;;;;;;;4881305;29;20194;-74
2022/01/20 10:32:57;;;;;;;80.50;49.70;;;;;;;;;;4892195;29;20080;-74
2022/01/20 10:35:32;;;;;;;79.22;47.20;;;;;;;;;;4891668;29;20087;-73
2022/01/20 10:38:11;;;;;;;88.28;52.08;;;;;;;;;;4909854;29;20053;-72
2022/01/20 10:40:58;;;;;;;81.00;50.33;;;;;;;;;;4887380;29;20048;-73
2022/01/20 10:43:35;;;;;;;78.07;51.03;;;;;;;;;;4882272;29;20059;-73
2022/01/20 10:46:19;;;;;;;81.45;54.20;;;;;;;;;;4908713;29;20505;-73
2022/01/20 10:49:00;;;;;;;88.68;56.17;;;;;;;;;;4911394;29;20048;-74
2022/01/20 10:51:34;;;;;;;80.20;53.83;;;;;;;;;;4906266;29;20100;-79
2022/01/20 10:54:06;;;;;;;89.18;56.63;;;;;;;;;;4914700;29;20052;-71
2022/01/20 10:56:46;;;;;;;85.55;52.63;;;;;;;;;;4914362;29;20719;-70
2022/01/20 10:59:14;;;;;;;87.88;51.88;;;;;;;;;;4914521;29;20048;-69
2022/01/20 11:01:41;;;;;;;100.30;56.60;;;;;;;;;;4914555;29;20079;-69
2022/01/20 11:04:10;;;;;;;100.88;57.65;;;;;;;;;;4915144;29;20513;-72
2022/01/20 11:06:39;;;;;;;95.55;59.13;;;;;;;;;;4915647;29;20055;-72
2022/01/20 11:09:27;;;;;;;99.95;59.90;;;;;;;;;;4913410;29;20052;-72
2022/01/20 11:12:20;;;;;;;94.13;58.50;;;;;;;;;;4911692;29;20064;-72
2022/01/20 11:15:01;;;;;;;102.65;61.45;;;;;;;;;;4885888;29;20139;-72
2022/01/20 11:17:30;;;;;;;105.50;62.00;;;;;;;;;;4913062;29;20048;-72
2022/01/20 11:20:04;;;;;;;100.78;60.35;;;;;;;;;;4913326;29;20048;-73
2022/01/20 11:22:32;;;;;;;108.95;60.97;;;;;;;;;;4913664;29;20048;-73
2022/01/20 11:25:13;;;;;;;105.70;61.88;;;;;;;;;;4912227;29;20052;-72
2022/01/20 11:28:22;;;;;;;89.03;53.28;;;;;;;;;;4888686;29;20644;-72
2022/01/20 11:31:15;;;;;;;93.18;49.78;;;;;;;;;;4898835;29;20460;-72
2022/01/20 11:34:13;;;;;;;102.22;58.58;;;;;;;;;;4908608;29;20091;-72
2022/01/20 11:36:39;;;;;;;98.03;53.38;;;;;;;;;;4915176;29;20055;-71
2022/01/20 11:39:26;;;;;;;102.82;55.03;;;;;;;;;;4915000;29;20048;-69
2022/01/20 11:41:53;;;;;;;94.60;51.65;;;;;;;;;;4910066;29;20051;-70
2022/01/20 11:44:31;;;;;;;95.65;54.80;;;;;;;;;;4908887;29;20102;-69
2022/01/20 11:47:09;;;;;;;102.30;51.35;;;;;;;;;;4885054;29;20052;-69
2022/01/20 11:49:38;;;;;;;118.05;61.25;;;;;;;;;;4912043;29;20516;-70
2022/01/20 11:52:08;;;;;;;101.13;51.20;;;;;;;;;;4914422;29;20059;-71
2022/01/20 11:54:38;;;;;;;121.20;61.15;;;;;;;;;;4914940;29;20588;-70
2022/01/20 11:57:08;;;;;;;107.90;53.65;;;;;;;;;;4913675;29;20084;-70
2022/01/20 11:59:51;;;;;;;100.13;52.38;;;;;;;;;;4913225;29;20052;-70
2022/01/20 12:02:30;;;;;;;105.50;54.53;;;;;;;;;;4905078;29;20051;-70
2022/01/20 12:05:01;;;;;;;97.70;50.72;;;;;;;;;;4912353;29;20048;-70
2022/01/20 12:07:45;;;;;;;98.25;52.85;;;;;;;;;;4897790;29;20048;-70
2022/01/20 12:10:14;;;;;;;102.72;54.50;;;;;;;;;;4913216;29;20052;-71
2022/01/20 12:12:42;;;;;;;101.57;54.20;;;;;;;;;;4918725;29;20421;-69
2022/01/20 12:15:16;;;;;;;92.25;52.90;;;;;;;;;;4918945;29;20055;-69
2022/01/20 12:17:55;;;;;;;97.65;50.10;;;;;;;;;;4905885;29;20048;-70
2022/01/20 12:20:23;;;;;;;91.75;48.25;;;;;;;;;;4885695;29;20506;-70
2022/01/20 12:22:51;;;;;;;75.25;47.05;;;;;;;;;;4918177;29;20088;-70
2022/01/20 12:25:26;;;;;;;80.95;44.25;;;;;;;;;;4900859;29;20052;-70
2022/01/20 12:28:10;;;;;;;82.32;47.72;;;;;;;;;;4902774;29;20052;-71
2022/01/20 12:30:44;;;;;;;89.57;48.10;;;;;;;;;;4913206;29;20044;-71
2022/01/20 12:33:19;;;;;;;86.80;48.22;;;;;;;;;;4913177;29;20056;-70
2022/01/20 12:35:48;;;;;;;85.50;49.90;;;;;;;;;;4906491;29;20123;-71
2022/01/20 12:38:17;;;;;;;91.40;47.85;;;;;;;;;;4912590;29;20428;-72
2022/01/20 12:41:00;;;;;;;91.10;50.08;;;;;;;;;;4909720;29;20135;-72
2022/01/20 12:43:45;;;;;;;77.88;47.10;;;;;;;;;;4918018;29;20131;-74
2022/01/20 12:46:24;;;;;;;82.88;48.97;;;;;;;;;;4900579;29;20457;-71
2022/01/20 12:49:13;;;;;;;85.18;46.03;;;;;;;;;;4916751;29;20055;-71
2022/01/20 12:51:43;;;;;;;83.15;46.40;;;;;;;;;;4917736;29;20501;-71
2022/01/20 12:54:16;;;;;;;81.22;47.00;;;;;;;;;;4914064;29;20074;-70
2022/01/20 12:57:47;;;;;;;84.40;49.33;;;;;;;;;;4919070;29;20586;-72
2022/01/20 13:00:15;;;;;;;81.78;45.80;;;;;;;;;;4915473;29;20403;-72
2022/01/20 13:02:50;;;;;;;82.63;47.70;;;;;;;;;;4882753;29;20067;-71
2022/01/20 13:05:19;;;;;;;80.93;45.63;;;;;;;;;;4916641;29;20076;-74
2022/01/20 13:07:51;;;;;;;75.80;41.60;;;;;;;;;;4900331;29;20501;-71
2022/01/20 13:10:33;;;;;;;69.78;39.17;;;;;;;;;;4901823;29;20075;-72
2022/01/20 13:13:05;;;;;;;69.75;36.72;;;;;;;;;;4917797;29;20091;-72
2022/01/20 13:15:32;;;;;;;68.90;37.88;;;;;;;;;;4901531;29;20052;-71
2022/01/20 13:18:07;;;;;;;75.57;41.67;;;;;;;;;;4917664;29;20123;-71
2022/01/20 13:20:40;;;;;;;71.22;39.63;;;;;;;;;;4899663;29;20429;-72
2022/01/20 13:23:54;;;;;;;76.25;42.20;;;;;;;;;;4917937;29;20123;-72
2022/01/20 13:26:08;;;;;;;65.38;38.72;;;;;;;;;;4903105;29;20055;-71
2022/01/20 13:28:35;;;;;;;66.22;35.88;;;;;;;;;;4901123;29;20143;-72
2022/01/20 13:31:16;;;;;;;62.53;36.53;;;;;;;;;;4900291;29;20056;-72
2022/01/20 13:33:43;;;;;;;61.88;36.25;;;;;;;;;;4901067;29;20052;-71
2022/01/20 13:36:11;;;;;;;78.70;41.45;;;;;;;;;;4917187;29;20060;-72
2022/01/20 13:38:45;;;;;;;71.03;39.67;;;;;;;;;;4917581;29;20128;-72
2022/01/20 13:41:19;;;;;;;76.40;40.78;;;;;;;;;;4917582;29;20450;-72
2022/01/20 13:46:34;;;;;;;71.30;39.35;;;;;;;;;;4903348;29;20079;-71
2022/01/20 13:49:11;;;;;;;79.30;40.40;;;;;;;;;;4916756;29;20048;-72
2022/01/20 13:51:38;;;;;;;68.18;38.72;;;;;;;;;;4900597;29;20127;-72
2022/01/20 13:54:06;;;;;;;58.38;33.47;;;;;;;;;;4916901;29;20082;-71
2022/01/20 13:56:33;;;;;;;64.97;35.08;;;;;;;;;;4900689;29;20040;-71
2022/01/20 13:59:10;;;;;;;59.33;31.27;;;;;;;;;;4899961;29;20048;-72
2022/01/20 14:01:54;;;;;;;52.88;31.15;;;;;;;;;;4902329;29;20052;-71
2022/01/20 14:04:21;;;;;;;50.25;29.23;;;;;;;;;;4900312;29;20076;-72
2022/01/20 14:06:49;;;;;;;45.42;29.23;;;;;;;;;;4899963;29;20134;-72
2022/01/20 14:09:16;;;;;;;49.35;27.20;;;;;;;;;;4900051;29;20505;-72
2022/01/20 14:11:43;;;;;;;59.15;33.53;;;;;;;;;;4900015;29;20508;-72
2022/01/20 14:14:11;;;;;;;65.15;35.03;;;;;;;;;;4900303;29;20472;-71
2022/01/20 14:16:39;;;;;;;73.05;41.97;;;;;;;;;;4899681;29;20527;-71
2022/01/20 14:19:07;;;;;;;69.35;42.60;;;;;;;;;;4900145;29;20044;-72
2022/01/20 14:21:34;;;;;;;79.93;41.55;;;;;;;;;;4900087;29;20056;-71
2022/01/20 14:24:01;;;;;;;79.45;42.65;;;;;;;;;;4899672;29;20052;-71
2022/01/20 14:26:30;;;;;;;64.55;37.08;;;;;;;;;;4916794;29;20087;-71
2022/01/20 14:28:58;;;;;;;67.88;35.70;;;;;;;;;;4896150;29;20048;-71
2022/01/20 14:31:25;;;;;;;55.78;30.30;;;;;;;;;;4895755;29;20058;-71
2022/01/20 14:33:52;;;;;;;65.63;37.40;;;;;;;;;;4913902;29;20060;-71
2022/01/20 14:36:19;;;;;;;64.50;34.90;;;;;;;;;;4915543;29;20074;-71
2022/01/20 14:38:46;;;;;;;74.75;41.35;;;;;;;;;;4915004;29;20465;-72
2022/01/20 14:41:15;;;;;;;64.90;38.22;;;;;;;;;;4915356;29;20052;-69
2022/01/20 14:43:42;;;;;;;61.58;32.97;;;;;;;;;;4916653;29;20123;-70
2022/01/20 14:46:10;;;;;;;57.90;34.17;;;;;;;;;;4916201;29;20104;-70
2022/01/20 14:48:38;;;;;;;62.30;35.10;;;;;;;;;;4915410;29;20048;-70
2022/01/20 14:51:08;;;;;;;54.30;33.25;;;;;;;;;;4916159;29;20412;-71
2022/01/20 14:53:35;;;;;;;57.63;33.33;;;;;;;;;;4914930;29;20053;-70
2022/01/20 14:56:03;;;;;;;53.03;32.08;;;;;;;;;;4915078;29;20460;-70
2022/01/20 14:58:30;;;;;;;57.60;31.30;;;;;;;;;;4915054;29;20068;-71
2022/01/20 15:00:57;;;;;;;52.75;30.55;;;;;;;;;;4914655;29;20576;-71
2022/01/20 15:03:24;;;;;;;55.63;34.05;;;;;;;;;;4916137;29;20112;-71
2022/01/20 15:05:51;;;;;;;56.35;35.42;;;;;;;;;;4914930;29;20127;-72
2022/01/20 15:08:18;;;;;;;65.57;34.28;;;;;;;;;;4914301;29;20167;-70
2022/01/20 15:10:45;;;;;;;72.78;41.30;;;;;;;;;;4914444;29;20080;-71
2022/01/20 15:13:12;;;;;;;73.30;41.67;;;;;;;;;;4914523;29;20048;-70
2022/01/20 15:15:39;;;;;;;65.75;36.97;;;;;;;;;;4914808;29;20048;-70
2022/01/20 15:18:06;;;;;;;72.13;41.60;;;;;;;;;;4914902;29;20449;-71
2022/01/20 15:20:53;;;;;;;69.85;36.65;;;;;;;;;;4914806;29;20044;-71
2022/01/20 15:23:20;;;;;;;66.47;36.47;;;;;;;;;;4914265;29;20055;-71
2022/01/20 15:25:47;;;;;;;69.00;39.97;;;;;;;;;;4915200;29;20452;-71
2022/01/20 15:28:14;;;;;;;63.63;39.63;;;;;;;;;;4914591;29;20433;-71
2022/01/20 15:30:42;;;;;;;65.88;37.78;;;;;;;;;;4914104;29;20401;-71
2022/01/20 15:33:09;;;;;;;67.55;37.55;;;;;;;;;;4914421;29;20469;-71
2022/01/20 15:35:36;;;;;;;66.18;36.25;;;;;;;;;;4915548;29;20048;-70
2022/01/20 15:38:03;;;;;;;61.05;35.13;;;;;;;;;;4915341;29;20052;-71
2022/01/20 15:40:30;;;;;;;61.25;38.13;;;;;;;;;;4914330;29;20512;-71
2022/01/20 15:42:57;;;;;;;63.33;35.97;;;;;;;;;;4913465;29;20138;-72
2022/01/20 15:45:24;;;;;;;58.13;35.70;;;;;;;;;;4914254;29;20044;-71
2022/01/20 15:47:51;;;;;;;65.28;38.83;;;;;;;;;;4915389;29;20142;-70
2022/01/20 15:50:18;;;;;;;61.80;35.33;;;;;;;;;;4913985;29;20052;-71
2022/01/20 15:52:45;;;;;;;62.22;37.10;;;;;;;;;;4914106;29;20048;-71
2022/01/20 15:55:12;;;;;;;70.22;41.47;;;;;;;;;;4915696;29;20062;-70